Terminal Aerodrome Forecast
Issued by NWS

Home | Current Version | Previous Version | Text Only | Print | Product List | Glossary On
Versions: 1 2 3 4 5 6 7 8 9 10 11 12 13 14 15 16 17 18 19 20 21 22 23 24 25 26 27 28 29 30
000
FTAK31 PANC 282339
TAFAAQ
TAF
PAAQ 282339Z 2900/2924 02007KT P6SM SCT100 BKN200
     FM290400 04010G20KT P6SM SCT070 OVC120
     FM291200 01020G35KT P6SM OVC090=

USA.gov is the U.S. government's official web portal to all federal, state and local government web resources and services.